sensor_id;sensor_type;location;lat;lon;timestamp;pressure;altitude;pressure_sealevel;temperature;humidity
29907;BME280;16776;50.958;10.994;2023-04-29T00:01:39;97974.44;;;10.40;100.00
29907;BME280;16776;50.958;10.994;2023-04-29T00:04:07;97970.78;;;10.46;100.00
29907;BME280;16776;50.958;10.994;2023-04-29T00:06:34;97975.91;;;10.47;100.00
29907;BME280;16776;50.958;10.994;2023-04-29T00:09:01;97974.03;;;10.51;100.00
29907;BME280;16776;50.958;10.994;2023-04-29T00:11:28;97973.06;;;10.55;100.00
29907;BME280;16776;50.958;10.994;2023-04-29T00:13:55;97973.78;;;10.58;100.00
29907;BME280;16776;50.958;10.994;2023-04-29T00:16:21;97963.38;;;10.61;100.00
29907;BME280;16776;50.958;10.994;2023-04-29T00:18:48;97958.09;;;10.64;100.00
29907;BME280;16776;50.958;10.994;2023-04-29T00:21:16;97953.63;;;10.70;100.00
29907;BME280;16776;50.958;10.994;2023-04-29T00:23:43;97955.31;;;10.71;100.00
29907;BME280;16776;50.958;10.994;2023-04-29T00:26:10;97956.09;;;10.73;100.00
29907;BME280;16776;50.958;10.994;2023-04-29T00:28:36;97956.84;;;10.75;100.00
29907;BME280;16776;50.958;10.994;2023-04-29T00:31:03;97961.91;;;10.78;100.00
29907;BME280;16776;50.958;10.994;2023-04-29T00:33:29;97957.53;;;10.80;100.00
29907;BME280;16776;50.958;10.994;2023-04-29T00:35:56;97959.13;;;10.82;100.00
29907;BME280;16776;50.958;10.994;2023-04-29T00:38:24;97960.78;;;10.85;100.00
29907;BME280;16776;50.958;10.994;2023-04-29T00:40:51;97968.50;;;10.85;100.00
29907;BME280;16776;50.958;10.994;2023-04-29T00:43:17;97975.28;;;10.87;100.00
29907;BME280;16776;50.958;10.994;2023-04-29T00:45:44;97968.38;;;10.88;100.00
29907;BME280;16776;50.958;10.994;2023-04-29T00:48:11;97975.19;;;10.89;100.00
29907;BME280;16776;50.958;10.994;2023-04-29T00:50:41;97968.31;;;10.89;100.00
29907;BME280;16776;50.958;10.994;2023-04-29T00:53:08;97980.31;;;10.90;100.00
29907;BME280;16776;50.958;10.994;2023-04-29T00:55:37;97977.63;;;10.93;100.00
29907;BME280;16776;50.958;10.994;2023-04-29T00:58:04;97978.56;;;10.91;100.00
29907;BME280;16776;50.958;10.994;2023-04-29T01:00:31;97975.94;;;10.92;100.00
29907;BME280;16776;50.958;10.994;2023-04-29T01:02:58;97974.25;;;10.91;100.00
29907;BME280;16776;50.958;10.994;2023-04-29T01:05:25;97980.25;;;10.92;100.00
29907;BME280;16776;50.958;10.994;2023-04-29T01:07:58;97983.47;;;10.97;100.00
29907;BME280;16776;50.958;10.994;2023-04-29T01:10:28;97979.41;;;10.91;100.00
29907;BME280;16776;50.958;10.994;2023-04-29T01:13:10;97982.59;;;10.98;100.00
29907;BME280;16776;50.958;10.994;2023-04-29T01:15:46;97985.22;;;10.96;100.00
29907;BME280;16776;50.958;10.994;2023-04-29T01:18:19;97987.09;;;10.93;100.00
29907;BME280;16776;50.958;10.994;2023-04-29T01:20:49;97991.50;;;10.89;100.00
29907;BME280;16776;50.958;10.994;2023-04-29T01:23:16;97988.09;;;10.89;100.00
29907;BME280;16776;50.958;10.994;2023-04-29T01:25:44;97982.88;;;10.90;100.00
29907;BME280;16776;50.958;10.994;2023-04-29T01:28:20;97983.59;;;10.94;100.00
29907;BME280;16776;50.958;10.994;2023-04-29T01:30:56;97987.94;;;10.93;100.00
29907;BME280;16776;50.958;10.994;2023-04-29T01:33:32;97990.56;;;10.92;100.00
29907;BME280;16776;50.958;10.994;2023-04-29T01:36:11;97985.50;;;10.89;100.00
29907;BME280;16776;50.958;10.994;2023-04-29T01:38:48;97986.53;;;10.85;100.00
29907;BME280;16776;50.958;10.994;2023-04-29T01:41:26;97987.44;;;10.84;100.00
29907;BME280;16776;50.958;10.994;2023-04-29T01:43:57;97989.38;;;10.77;100.00
29907;BME280;16776;50.958;10.994;2023-04-29T01:46:26;97989.44;;;10.76;100.00
29907;BME280;16776;50.958;10.994;2023-04-29T01:48:53;97984.41;;;10.73;100.00
29907;BME280;16776;50.958;10.994;2023-04-29T01:51:20;97980.16;;;10.72;100.00
29907;BME280;16776;50.958;10.994;2023-04-29T01:53:47;97987.09;;;10.70;100.00
29907;BME280;16776;50.958;10.994;2023-04-29T01:56:13;97979.44;;;10.68;100.00
29907;BME280;16776;50.958;10.994;2023-04-29T01:58:41;97978.53;;;10.69;100.00
29907;BME280;16776;50.958;10.994;2023-04-29T02:01:08;97980.41;;;10.66;100.00
29907;BME280;16776;50.958;10.994;2023-04-29T02:03:36;97980.44;;;10.64;100.00
29907;BME280;16776;50.958;10.994;2023-04-29T02:06:03;97989.06;;;10.63;100.00
29907;BME280;16776;50.958;10.994;2023-04-29T02:08:31;97983.06;;;10.62;100.00
29907;BME280;16776;50.958;10.994;2023-04-29T02:10:58;97980.50;;;10.62;100.00
29907;BME280;16776;50.958;10.994;2023-04-29T02:13:25;97983.06;;;10.62;100.00
29907;BME280;16776;50.958;10.994;2023-04-29T02:15:52;97983.91;;;10.63;100.00
29907;BME280;16776;50.958;10.994;2023-04-29T02:18:19;97984.88;;;10.60;100.00
29907;BME280;16776;50.958;10.994;2023-04-29T02:20:46;97987.47;;;10.60;100.00
29907;BME280;16776;50.958;10.994;2023-04-29T02:23:14;97984.09;;;10.58;100.00
29907;BME280;16776;50.958;10.994;2023-04-29T02:25:40;97990.13;;;10.57;100.00
29907;BME280;16776;50.958;10.994;2023-04-29T02:28:07;97986.78;;;10.55;100.00
29907;BME280;16776;50.958;10.994;2023-04-29T02:30:34;97995.41;;;10.54;100.00
29907;BME280;16776;50.958;10.994;2023-04-29T02:33:02;97993.69;;;10.55;100.00
29907;BME280;16776;50.958;10.994;2023-04-29T02:35:28;97988.63;;;10.50;100.00
29907;BME280;16776;50.958;10.994;2023-04-29T02:37:55;97955.06;;;10.30;100.00
29907;BME280;16776;50.958;10.994;2023-04-29T02:40:21;97986.16;;;10.49;100.00
29907;BME280;16776;50.958;10.994;2023-04-29T02:42:49;97984.47;;;10.48;100.00
29907;BME280;16776;50.958;10.994;2023-04-29T02:45:16;97999.97;;;10.46;100.00
29907;BME280;16776;50.958;10.994;2023-04-29T02:47:43;97990.53;;;10.45;100.00
29907;BME280;16776;50.958;10.994;2023-04-29T02:50:11;98000.84;;;10.45;100.00
29907;BME280;16776;50.958;10.994;2023-04-29T02:52:37;97996.72;;;10.41;100.00
29907;BME280;16776;50.958;10.994;2023-04-29T02:55:06;97994.13;;;10.41;100.00
29907;BME280;16776;50.958;10.994;2023-04-29T02:57:33;97998.44;;;10.41;100.00
29907;BME280;16776;50.958;10.994;2023-04-29T02:59:59;97994.97;;;10.42;100.00
29907;BME280;16776;50.958;10.994;2023-04-29T03:02:26;98000.06;;;10.43;100.00
29907;BME280;16776;50.958;10.994;2023-04-29T03:04:52;98000.06;;;10.43;100.00
29907;BME280;16776;50.958;10.994;2023-04-29T03:07:20;98005.91;;;10.48;100.00
29907;BME280;16776;50.958;10.994;2023-04-29T03:09:47;98003.31;;;10.48;100.00
29907;BME280;16776;50.958;10.994;2023-04-29T03:12:13;98001.50;;;10.50;100.00
29907;BME280;16776;50.958;10.994;2023-04-29T03:14:41;97999.75;;;10.52;100.00
29907;BME280;16776;50.958;10.994;2023-04-29T03:17:10;98006.38;;;10.59;100.00
29907;BME280;16776;50.958;10.994;2023-04-29T03:19:37;98005.56;;;10.57;100.00
29907;BME280;16776;50.958;10.994;2023-04-29T03:22:03;98002.91;;;10.60;100.00
29907;BME280;16776;50.958;10.994;2023-04-29T03:24:31;98011.34;;;10.64;100.00
29907;BME280;16776;50.958;10.994;2023-04-29T03:26:58;98001.03;;;10.64;100.00
29907;BME280;16776;50.958;10.994;2023-04-29T03:29:25;98005.25;;;10.67;100.00
29907;BME280;16776;50.958;10.994;2023-04-29T03:31:52;98004.38;;;10.68;100.00
29907;BME280;16776;50.958;10.994;2023-04-29T03:34:19;98005.13;;;10.70;100.00
29907;BME280;16776;50.958;10.994;2023-04-29T03:36:45;97999.13;;;10.69;100.00
29907;BME280;16776;50.958;10.994;2023-04-29T03:39:12;97999.94;;;10.71;100.00
29907;BME280;16776;50.958;10.994;2023-04-29T03:41:40;98000.72;;;10.73;100.00
29907;BME280;16776;50.958;10.994;2023-04-29T03:44:06;98002.44;;;10.73;100.00
29907;BME280;16776;50.958;10.994;2023-04-29T03:46:33;98005.03;;;10.73;100.00
29907;BME280;16776;50.958;10.994;2023-04-29T03:49:00;98005.88;;;10.73;100.00
29907;BME280;16776;50.958;10.994;2023-04-29T03:51:26;98004.13;;;10.74;100.00
29907;BME280;16776;50.958;10.994;2023-04-29T03:53:54;98017.00;;;10.74;100.00
29907;BME280;16776;50.958;10.994;2023-04-29T03:56:22;98012.69;;;10.74;100.00
29907;BME280;16776;50.958;10.994;2023-04-29T03:58:51;98014.25;;;10.78;100.00
29907;BME280;16776;50.958;10.994;2023-04-29T04:01:17;98019.47;;;10.77;100.00
29907;BME280;16776;50.958;10.994;2023-04-29T04:03:44;98027.97;;;10.79;100.00
29907;BME280;16776;50.958;10.994;2023-04-29T04:06:10;98030.56;;;10.79;100.00
29907;BME280;16776;50.958;10.994;2023-04-29T04:08:37;98039.88;;;10.81;100.00
29907;BME280;16776;50.958;10.994;2023-04-29T04:11:05;98042.41;;;10.83;100.00
29907;BME280;16776;50.958;10.994;2023-04-29T04:13:32;98043.28;;;10.82;100.00
29907;BME280;16776;50.958;10.994;2023-04-29T04:16:00;98045.78;;;10.85;100.00
29907;BME280;16776;50.958;10.994;2023-04-29T04:18:27;98045.81;;;10.83;100.00
29907;BME280;16776;50.958;10.994;2023-04-29T04:20:54;98042.41;;;10.83;100.00
29907;BME280;16776;50.958;10.994;2023-04-29T04:23:21;98053.56;;;10.83;100.00
29907;BME280;16776;50.958;10.994;2023-04-29T04:25:48;98046.72;;;10.82;100.00
29907;BME280;16776;50.958;10.994;2023-04-29T04:28:15;98058.75;;;10.82;100.00
29907;BME280;16776;50.958;10.994;2023-04-29T04:30:41;98061.31;;;10.82;100.00
29907;BME280;16776;50.958;10.994;2023-04-29T04:33:10;98055.28;;;10.83;100.00
29907;BME280;16776;50.958;10.994;2023-04-29T04:35:37;98061.41;;;10.80;100.00
29907;BME280;16776;50.958;10.994;2023-04-29T04:38:04;98063.16;;;10.80;100.00
29907;BME280;16776;50.958;10.994;2023-04-29T04:40:30;98056.31;;;10.79;100.00
29907;BME280;16776;50.958;10.994;2023-04-29T04:42:57;98062.31;;;10.79;100.00
29907;BME280;16776;50.958;10.994;2023-04-29T04:45:23;98069.19;;;10.79;100.00
29907;BME280;16776;50.958;10.994;2023-04-29T04:47:50;98061.47;;;10.79;100.00
29907;BME280;16776;50.958;10.994;2023-04-29T04:50:18;98073.31;;;10.83;100.00
29907;BME280;16776;50.958;10.994;2023-04-29T04:52:45;98065.75;;;10.78;100.00
29907;BME280;16776;50.958;10.994;2023-04-29T04:55:12;98062.31;;;10.79;100.00
29907;BME280;16776;50.958;10.994;2023-04-29T04:57:38;98068.28;;;10.80;100.00
29907;BME280;16776;50.958;10.994;2023-04-29T05:00:06;98062.25;;;10.81;100.00
29907;BME280;16776;50.958;10.994;2023-04-29T05:02:32;98069.97;;;10.81;100.00
29907;BME280;16776;50.958;10.994;2023-04-29T05:04:59;98074.28;;;10.80;100.00
29907;BME280;16776;50.958;10.994;2023-04-29T05:07:27;98074.16;;;10.83;100.00
29907;BME280;16776;50.958;10.994;2023-04-29T05:09:54;98079.31;;;10.83;100.00
29907;BME280;16776;50.958;10.994;2023-04-29T05:12:20;98076.63;;;10.86;100.00
29907;BME280;16776;50.958;10.994;2023-04-29T05:14:51;98085.88;;;10.92;100.00
29907;BME280;16776;50.958;10.994;2023-04-29T05:17:18;98090.38;;;10.87;100.00
29907;BME280;16776;50.958;10.994;2023-04-29T05:19:44;98090.22;;;10.90;100.00
29907;BME280;16776;50.958;10.994;2023-04-29T05:22:11;98088.44;;;10.92;100.00
29907;BME280;16776;50.958;10.994;2023-04-29T05:24:39;98092.63;;;10.94;100.00
29907;BME280;16776;50.958;10.994;2023-04-29T05:27:05;98099.53;;;10.94;100.00
29907;BME280;16776;50.958;10.994;2023-04-29T05:29:32;98092.63;;;10.94;100.00
29907;BME280;16776;50.958;10.994;2023-04-29T05:31:58;98100.31;;;10.96;100.00
29907;BME280;16776;50.958;10.994;2023-04-29T05:34:25;98094.28;;;10.97;100.00
29907;BME280;16776;50.958;10.994;2023-04-29T05:36:52;98101.09;;;10.98;100.00
29907;BME280;16776;50.958;10.994;2023-04-29T05:39:24;98101.66;;;11.06;100.00
29907;BME280;16776;50.958;10.994;2023-04-29T05:41:53;98108.59;;;11.04;100.00
29907;BME280;16776;50.958;10.994;2023-04-29T05:44:19;98111.19;;;11.04;100.00
29907;BME280;16776;50.958;10.994;2023-04-29T05:46:46;98105.00;;;11.08;100.00
29907;BME280;16776;50.958;10.994;2023-04-29T05:49:13;98109.84;;;11.17;100.00
29907;BME280;16776;50.958;10.994;2023-04-29T05:51:40;98111.09;;;11.29;100.00
29907;BME280;16776;50.958;10.994;2023-04-29T05:54:06;98112.38;;;11.40;100.00
29907;BME280;16776;50.958;10.994;2023-04-29T05:56:33;98112.97;;;11.47;100.00
29907;BME280;16776;50.958;10.994;2023-04-29T05:59:01;98119.53;;;11.56;100.00
29907;BME280;16776;50.958;10.994;2023-04-29T06:01:27;98119.53;;;11.56;100.00
29907;BME280;16776;50.958;10.994;2023-04-29T06:03:54;98128.88;;;11.58;100.00
29907;BME280;16776;50.958;10.994;2023-04-29T06:06:20;98126.28;;;11.60;100.00
29907;BME280;16776;50.958;10.994;2023-04-29T06:08:47;98128.84;;;11.60;100.00
29907;BME280;16776;50.958;10.994;2023-04-29T06:11:13;98134.00;;;11.60;100.00
29907;BME280;16776;50.958;10.994;2023-04-29T06:13:40;98141.75;;;11.60;100.00
29907;BME280;16776;50.958;10.994;2023-04-29T06:16:08;98146.00;;;11.61;100.00
29907;BME280;16776;50.958;10.994;2023-04-29T06:18:34;98152.09;;;11.58;100.00
29907;BME280;16776;50.958;10.994;2023-04-29T06:21:01;98150.44;;;11.57;100.00
29907;BME280;16776;50.958;10.994;2023-04-29T06:23:28;98156.44;;;11.58;100.00
29907;BME280;16776;50.958;10.994;2023-04-29T06:25:56;98162.41;;;11.58;100.00
29907;BME280;16776;50.958;10.994;2023-04-29T06:28:22;98164.16;;;11.58;100.00
29907;BME280;16776;50.958;10.994;2023-04-29T06:30:51;98164.22;;;11.56;100.00
29907;BME280;16776;50.958;10.994;2023-04-29T06:33:19;98166.66;;;11.61;100.00
29907;BME280;16776;50.958;10.994;2023-04-29T06:35:45;98173.56;;;11.59;100.00
29907;BME280;16776;50.958;10.994;2023-04-29T06:38:12;98174.41;;;11.59;100.00
29907;BME280;16776;50.958;10.994;2023-04-29T06:40:38;98178.69;;;11.60;100.00
29907;BME280;16776;50.958;10.994;2023-04-29T06:43:05;98182.13;;;11.61;100.00
29907;BME280;16776;50.958;10.994;2023-04-29T06:45:32;98184.66;;;11.62;100.00
29907;BME280;16776;50.958;10.994;2023-04-29T06:47:58;98192.38;;;11.62;100.00
29907;BME280;16776;50.958;10.994;2023-04-29T06:50:26;98186.25;;;11.65;100.00
29907;BME280;16776;50.958;10.994;2023-04-29T06:52:53;98187.22;;;11.62;100.00
29907;BME280;16776;50.958;10.994;2023-04-29T06:55:19;98192.38;;;11.62;100.00
29907;BME280;16776;50.958;10.994;2023-04-29T06:57:49;98190.50;;;11.66;100.00
29907;BME280;16776;50.958;10.994;2023-04-29T07:00:15;98193.22;;;11.63;100.00
29907;BME280;16776;50.958;10.994;2023-04-29T07:02:43;98200.97;;;11.63;100.00
29907;BME280;16776;50.958;10.994;2023-04-29T07:05:10;98200.88;;;11.64;100.00
29907;BME280;16776;50.958;10.994;2023-04-29T07:07:40;98200.84;;;11.66;100.00
29907;BME280;16776;50.958;10.994;2023-04-29T07:10:09;98212.72;;;11.70;100.00
29907;BME280;16776;50.958;10.994;2023-04-29T07:12:36;98217.16;;;11.66;100.00
29907;BME280;16776;50.958;10.994;2023-04-29T07:15:03;98219.69;;;11.68;100.00
29907;BME280;16776;50.958;10.994;2023-04-29T07:17:29;98220.53;;;11.68;100.00
29907;BME280;16776;50.958;10.994;2023-04-29T07:19:56;98223.06;;;11.70;100.00
29907;BME280;16776;50.958;10.994;2023-04-29T07:22:25;98221.22;;;11.72;100.00
29907;BME280;16776;50.958;10.994;2023-04-29T07:24:54;98224.50;;;11.77;100.00
29907;BME280;16776;50.958;10.994;2023-04-29T07:27:21;98224.59;;;11.74;100.00
29907;BME280;16776;50.958;10.994;2023-04-29T07:29:48;98235.72;;;11.76;100.00
29907;BME280;16776;50.958;10.994;2023-04-29T07:32:15;98235.63;;;11.77;100.00
29907;BME280;16776;50.958;10.994;2023-04-29T07:34:45;98242.34;;;11.83;100.00
29907;BME280;16776;50.958;10.994;2023-04-29T07:37:12;98245.00;;;11.80;100.00
29907;BME280;16776;50.958;10.994;2023-04-29T07:39:38;98249.28;;;11.81;100.00
29907;BME280;16776;50.958;10.994;2023-04-29T07:42:08;98256.00;;;11.85;100.00
29907;BME280;16776;50.958;10.994;2023-04-29T07:44:34;98254.38;;;11.82;100.00
29907;BME280;16776;50.958;10.994;2023-04-29T07:47:01;98256.19;;;11.80;100.00
29907;BME280;16776;50.958;10.994;2023-04-29T07:49:28;98261.34;;;11.80;100.00
29907;BME280;16776;50.958;10.994;2023-04-29T07:51:54;98266.53;;;11.79;100.00
29907;BME280;16776;50.958;10.994;2023-04-29T07:54:21;98275.19;;;11.78;100.00
29907;BME280;16776;50.958;10.994;2023-04-29T07:56:48;98281.25;;;11.77;100.00
29907;BME280;16776;50.958;10.994;2023-04-29T07:59:16;98288.91;;;11.78;100.00
29907;BME280;16776;50.958;10.994;2023-04-29T08:01:42;98287.31;;;11.76;100.00
29907;BME280;16776;50.958;10.994;2023-04-29T08:04:09;98293.38;;;11.75;100.00
29907;BME280;16776;50.958;10.994;2023-04-29T08:06:38;98288.22;;;11.75;100.00
29907;BME280;16776;50.958;10.994;2023-04-29T08:09:06;98291.84;;;11.69;100.00
29907;BME280;16776;50.958;10.994;2023-04-29T08:11:32;98292.75;;;11.68;100.00
29907;BME280;16776;50.958;10.994;2023-04-29T08:13:59;98307.38;;;11.68;100.00
29907;BME280;16776;50.958;10.994;2023-04-29T08:16:29;98314.09;;;11.72;100.00
29907;BME280;16776;50.958;10.994;2023-04-29T08:18:56;98311.69;;;11.67;100.00
29907;BME280;16776;50.958;10.994;2023-04-29T08:21:22;98316.84;;;11.67;100.00
29907;BME280;16776;50.958;10.994;2023-04-29T08:23:52;98314.09;;;11.72;100.00
29907;BME280;16776;50.958;10.994;2023-04-29T08:26:22;98320.28;;;11.68;100.00
29907;BME280;16776;50.958;10.994;2023-04-29T08:28:48;98322.00;;;11.67;100.00
29907;BME280;16776;50.958;10.994;2023-04-29T08:31:15;98322.81;;;11.69;100.00
29907;BME280;16776;50.958;10.994;2023-04-29T08:33:44;98332.25;;;11.70;100.00
29907;BME280;16776;50.958;10.994;2023-04-29T08:36:10;98335.72;;;11.69;100.00
29907;BME280;16776;50.958;10.994;2023-04-29T08:38:37;98340.91;;;11.68;100.00
29907;BME280;16776;50.958;10.994;2023-04-29T08:41:06;98338.22;;;11.71;100.00
29907;BME280;16776;50.958;10.994;2023-04-29T08:43:33;98340.06;;;11.67;100.00
29907;BME280;16776;50.958;10.994;2023-04-29T08:46:01;98341.81;;;11.67;100.00
29907;BME280;16776;50.958;10.994;2023-04-29T08:48:29;98345.28;;;11.66;100.00
29907;BME280;16776;50.958;10.994;2023-04-29T08:50:57;98343.50;;;11.68;100.00
29907;BME280;16776;50.958;10.994;2023-04-29T08:53:24;98352.97;;;11.67;100.00
29907;BME280;16776;50.958;10.994;2023-04-29T08:55:52;98346.88;;;11.70;100.00
29907;BME280;16776;50.958;10.994;2023-04-29T08:58:20;98327.44;;;11.60;100.00
29907;BME280;16776;50.958;10.994;2023-04-29T09:00:50;98345.75;;;11.77;100.00
29907;BME280;16776;50.958;10.994;2023-04-29T09:03:22;98355.63;;;11.89;100.00
29907;BME280;16776;50.958;10.994;2023-04-29T09:05:53;98357.16;;;11.95;100.00
29907;BME280;16776;50.958;10.994;2023-04-29T09:08:22;98363.81;;;12.00;100.00
29907;BME280;16776;50.958;10.994;2023-04-29T09:10:50;98368.69;;;12.08;100.00
29907;BME280;16776;50.958;10.994;2023-04-29T09:13:23;98363.13;;;12.18;100.00
29907;BME280;16776;50.958;10.994;2023-04-29T09:15:50;98354.06;;;12.08;100.00
29907;BME280;16776;50.958;10.994;2023-04-29T09:18:41;98362.56;;;12.34;100.00
29907;BME280;16776;50.958;10.994;2023-04-29T09:21:26;98357.16;;;12.40;100.00
29907;BME280;16776;50.958;10.994;2023-04-29T09:23:56;98364.13;;;12.38;100.00
29907;BME280;16776;50.958;10.994;2023-04-29T09:26:24;98370.84;;;12.42;100.00
29907;BME280;16776;50.958;10.994;2023-04-29T09:29:07;98372.00;;;12.56;100.00
29907;BME280;16776;50.958;10.994;2023-04-29T09:31:36;98371.22;;;12.54;100.00
29907;BME280;16776;50.958;10.994;2023-04-29T09:34:03;98377.13;;;12.58;100.00
29907;BME280;16776;50.958;10.994;2023-04-29T09:36:37;98387.06;;;12.69;100.00
29907;BME280;16776;50.958;10.994;2023-04-29T09:39:06;98383.63;;;12.68;100.00
29907;BME280;16776;50.958;10.994;2023-04-29T09:41:38;98366.97;;;12.53;100.00
29907;BME280;16776;50.958;10.994;2023-04-29T09:44:06;98389.53;;;12.72;100.00
29907;BME280;16776;50.958;10.994;2023-04-29T09:46:32;98392.97;;;12.72;100.00
29907;BME280;16776;50.958;10.994;2023-04-29T09:49:01;98398.00;;;12.75;100.00
29907;BME280;16776;50.958;10.994;2023-04-29T09:51:29;98394.50;;;12.76;100.00
29907;BME280;16776;50.958;10.994;2023-04-29T09:53:58;98394.50;;;12.76;100.00
29907;BME280;16776;50.958;10.994;2023-04-29T09:56:26;98402.16;;;12.79;100.00
29907;BME280;16776;50.958;10.994;2023-04-29T09:58:58;98408.22;;;12.78;100.00
29907;BME280;16776;50.958;10.994;2023-04-29T10:01:33;98419.25;;;12.82;100.00
29907;BME280;16776;50.958;10.994;2023-04-29T10:04:00;98424.38;;;12.83;100.00
29907;BME280;16776;50.958;10.994;2023-04-29T10:06:28;98416.56;;;12.85;100.00
29907;BME280;16776;50.958;10.994;2023-04-29T10:08:55;98424.25;;;12.86;100.00
29907;BME280;16776;50.958;10.994;2023-04-29T10:11:21;98425.09;;;12.87;100.00
29907;BME280;16776;50.958;10.994;2023-04-29T10:13:50;98429.31;;;12.89;100.00
29907;BME280;16776;50.958;10.994;2023-04-29T10:16:27;98424.00;;;12.92;100.00
29907;BME280;16776;50.958;10.994;2023-04-29T10:18:59;98431.19;;;12.86;100.00
29907;BME280;16776;50.958;10.994;2023-04-29T10:21:31;98442.56;;;12.80;100.00
29907;BME280;16776;50.958;10.994;2023-04-29T10:23:58;98434.31;;;12.72;100.00
29907;BME280;16776;50.958;10.994;2023-04-29T10:26:26;98450.56;;;12.74;100.00
29907;BME280;16776;50.958;10.994;2023-04-29T10:28:56;98452.31;;;12.74;100.00
29907;BME280;16776;50.958;10.994;2023-04-29T10:31:25;98454.19;;;12.70;100.00
29907;BME280;16776;50.958;10.994;2023-04-29T10:33:56;98455.03;;;12.71;100.00
29907;BME280;16776;50.958;10.994;2023-04-29T10:36:24;98439.28;;;12.53;100.00
29907;BME280;16776;50.958;10.994;2023-04-29T10:38:55;98451.88;;;12.62;100.00
29907;BME280;16776;50.958;10.994;2023-04-29T10:41:24;98451.09;;;12.60;100.00
29907;BME280;16776;50.958;10.994;2023-04-29T10:43:53;98454.59;;;12.58;100.00
29907;BME280;16776;50.958;10.994;2023-04-29T10:46:22;98454.56;;;12.59;100.00
29907;BME280;16776;50.958;10.994;2023-04-29T10:48:55;98455.34;;;12.61;100.00
29907;BME280;16776;50.958;10.994;2023-04-29T10:51:27;98452.72;;;12.63;100.00
29907;BME280;16776;50.958;10.994;2023-04-29T10:54:06;98456.25;;;12.60;100.00
29907;BME280;16776;50.958;10.994;2023-04-29T10:56:39;98458.88;;;12.59;100.00
29907;BME280;16776;50.958;10.994;2023-04-29T10:59:09;98453.72;;;12.59;100.00
29907;BME280;16776;50.958;10.994;2023-04-29T11:01:48;98445.06;;;12.60;100.00
29907;BME280;16776;50.958;10.994;2023-04-29T11:04:16;98463.16;;;12.60;100.00
29907;BME280;16776;50.958;10.994;2023-04-29T11:06:45;98457.84;;;12.65;100.00
29907;BME280;16776;50.958;10.994;2023-04-29T11:09:14;98464.69;;;12.66;100.00
29907;BME280;16776;50.958;10.994;2023-04-29T11:11:45;98469.63;;;12.72;100.00
29907;BME280;16776;50.958;10.994;2023-04-29T11:14:13;98468.03;;;12.68;100.00
29907;BME280;16776;50.958;10.994;2023-04-29T11:16:50;98469.44;;;12.76;100.00
29907;BME280;16776;50.958;10.994;2023-04-29T11:19:17;98476.59;;;12.70;100.00
29907;BME280;16776;50.958;10.994;2023-04-29T11:21:45;98464.69;;;12.66;100.00
29907;BME280;16776;50.958;10.994;2023-04-29T11:24:12;98483.41;;;12.72;100.00
29907;BME280;16776;50.958;10.994;2023-04-29T11:26:40;98488.47;;;12.74;100.00
29907;BME280;16776;50.958;10.994;2023-04-29T11:29:07;98488.56;;;12.72;100.00
29907;BME280;16776;50.958;10.994;2023-04-29T11:31:35;98494.56;;;12.73;100.00
29907;BME280;16776;50.958;10.994;2023-04-29T11:34:04;98489.31;;;12.74;100.00
29907;BME280;16776;50.958;10.994;2023-04-29T11:36:31;98497.22;;;12.71;100.00
29907;BME280;16776;50.958;10.994;2023-04-29T11:39:02;98496.22;;;12.74;100.00
29907;BME280;16776;50.958;10.994;2023-04-29T11:41:29;98505.13;;;12.67;100.00
29907;BME280;16776;50.958;10.994;2023-04-29T11:43:57;98508.66;;;12.64;100.00
29907;BME280;16776;50.958;10.994;2023-04-29T11:46:25;98511.31;;;12.62;100.00
29907;BME280;16776;50.958;10.994;2023-04-29T11:48:52;98513.09;;;12.60;100.00
29907;BME280;16776;50.958;10.994;2023-04-29T11:51:20;98512.25;;;12.60;100.00
29907;BME280;16776;50.958;10.994;2023-04-29T11:53:47;98512.25;;;12.60;100.00
29907;BME280;16776;50.958;10.994;2023-04-29T11:56:14;98517.41;;;12.60;100.00
29907;BME280;16776;50.958;10.994;2023-04-29T11:58:41;98501.28;;;12.53;100.00
29907;BME280;16776;50.958;10.994;2023-04-29T12:01:08;98517.31;;;12.63;100.00
29907;BME280;16776;50.958;10.994;2023-04-29T12:03:35;98524.88;;;12.68;100.00
29907;BME280;16776;50.958;10.994;2023-04-29T12:06:02;98527.38;;;12.71;100.00
29907;BME280;16776;50.958;10.994;2023-04-29T12:08:30;98527.09;;;12.78;100.00
29907;BME280;16776;50.958;10.994;2023-04-29T12:10:58;98533.81;;;12.82;100.00
29907;BME280;16776;50.958;10.994;2023-04-29T12:13:27;98530.09;;;12.89;100.00
29907;BME280;16776;50.958;10.994;2023-04-29T12:15:57;98534.34;;;12.92;100.00
29907;BME280;16776;50.958;10.994;2023-04-29T12:18:24;98534.16;;;12.96;100.00
29907;BME280;16776;50.958;10.994;2023-04-29T12:20:52;98537.41;;;13.01;100.00
29907;BME280;16776;50.958;10.994;2023-04-29T12:23:21;98530.31;;;13.07;100.00
29907;BME280;16776;50.958;10.994;2023-04-29T12:25:50;98532.53;;;13.16;100.00
29907;BME280;16776;50.958;10.994;2023-04-29T12:28:17;98538.44;;;13.19;100.00
29907;BME280;16776;50.958;10.994;2023-04-29T12:30:45;98532.13;;;13.26;100.00
29907;BME280;16776;50.958;10.994;2023-04-29T12:33:15;98523.34;;;13.30;100.00
29907;BME280;16776;50.958;10.994;2023-04-29T12:35:44;98541.22;;;13.36;100.00
29907;BME280;16776;50.958;10.994;2023-04-29T12:38:10;98539.22;;;13.43;100.00
29907;BME280;16776;50.958;10.994;2023-04-29T12:40:39;98533.91;;;13.46;100.00
29907;BME280;16776;50.958;10.994;2023-04-29T12:43:11;98535.28;;;13.56;100.00
29907;BME280;16776;50.958;10.994;2023-04-29T12:45:37;98538.06;;;13.50;100.00